Arcadia, OH

1:21 AM EDT on August 25, 2016 (GMT -0400)
Arcadia Ohio Williesweather | | Change Station

Elev 820 ft 41.12 °N, 83.52 °W | Updated 0 second ago

Clear
Clear
73.0 °F
Feels Like 73.0 °F
N
0.0
Wind Variable Wind from SW
Gusts 0.0 mph

Today
High -- | Low -- °F
--% Chance of Precip.
Yesterday
High -- | Low -- °F
Precip. -- in
Pressure 29.96 in
Visibility 10.0 miles
Clouds Clear
Dew Point 72 °F
Humidity 96%
Rainfall 0.00 in
Snow Depth Not available.
6:54 AM 8:17 PM
Waning Gibbous, 49% visible
METAR KFDY 250453Z AUTO 24007KT 10SM CLR 24/22 A2999 RMK AO2 SLP143 T02390217 402940172
Pressure 29.96 in
Visibility 10.0 miles
Clouds Clear
Dew Point 72 °F
Humidity 96%
Rainfall 0.00 in
Snow Depth Not available.
6:54 AM 8:17 PM
Waning Gibbous, 49% visible
METAR KFDY 250453Z AUTO 24007KT 10SM CLR 24/22 A2999 RMK AO2 SLP143 T02390217 402940172

10-Day Weather Forecast

Almanac

Astronomy

Aug. 25, 2016 Rise Set
Actual Time
Civil Twilight
Nautical Twilight
Astronomical Twilight
Moon
Length of Visible Light
Length of Day
Tomorrow will be .
, % of the Moon is Illuminated

Today's Extremes

State Highs State Lows

Community

WunderPhotos

Upload Photos

1,934,799 photos uploaded!

WunderBlog® & News

Nearby

Air Quality

  Air Quality AQ Index Pollutant
Not available.

Snow Depth

Station Depth Elevation

Earthquake Activity

City Distance Mag. Time & Date
Minimum magnitude displayed is 2.5.

Coastal Water Temperatures

Place Temperature

Stations

Nearby Weather Stations

Station Location Temp. Windchill Dew Point Humidity Wind Precip. Elev Updated Type
                   

Watches & Warnings

There are currently no watches in effect.